This is the latest recevied weather packets stored in our database for station/object GW1497. If no packets are shown the sender has not sent any weather packets the latest 10 day(s).
| Time | Temp. | Humidity | Pressure | Rain* | Wind** | Luminosity | Snow |
|---|---|---|---|---|---|---|---|
| 1777705944 | 2.22° C | 99% | 1017.9 hPa | 0 mm | - | - | - |
| 1777701647 | 2.78° C | 98% | 1018.2 hPa | 0 mm | - | - | - |
| 1777701288 | 2.78° C | 98% | 1018.2 hPa | 0 mm | - | - | - |
| 1777699821 | 2.78° C | 97% | 1018.2 hPa | 0 mm | - | - | - |
| 1777698388 | 3.89° C | 95% | 1018.6 hPa | 0 mm | - | - | - |
| 1777695875 | 3.89° C | 95% | 1018.6 hPa | 0 mm | - | - | - |
| 1777691175 | 5° C | 88% | 1018.6 hPa | 0.51 mm | - | - | - |
| 1777681112 | 8.89° C | 73% | 1015.9 hPa | 0.51 mm | - | - | - |
| 1777680766 | 9.44° C | 74% | 1015.5 hPa | 0.51 mm | - | - | - |
| 1777679693 | 10° C | 82% | 1015.2 hPa | 0.51 mm | - | - | - |
| 1777678973 | 10° C | 82% | 1014.9 hPa | 0.51 mm | - | - | - |
| 1777674654 | 10° C | 81% | 1014.5 hPa | 0.51 mm | - | - | - |
| 1777671758 | 9.44° C | 88% | 1014.5 hPa | 0.51 mm | - | - | - |
| 1777661321 | 15° C | 50% | 1013.2 hPa | 0 mm | - | - | - |
| 1777660943 | 15° C | 49% | 1013.5 hPa | 0 mm | - | - | - |
| 1777658813 | 14.44° C | 49% | 1013.5 hPa | 0 mm | - | - | - |
| 1777653757 | 14.44° C | 46% | 1013.8 hPa | 0 mm | - | - | - |
| 1777646530 | 11.11° C | 71% | 1015.2 hPa | 0 mm | - | - | - |
| 1777645821 | 11.11° C | 72% | 1015.2 hPa | 0 mm | - | - | - |
| 1777645450 | 11.11° C | 74% | 1015.5 hPa | 0 mm | - | - | - |
| 1777643291 | 10° C | 80% | 1015.5 hPa | 0 mm | - | - | - |
| 1777639339 | 6.67° C | 94% | 1016.2 hPa | 0 mm | - | - | - |
| 1777638989 | 6.67° C | 95% | 1015.9 hPa | 0 mm | - | - | - |
| 1777638616 | 6.67° C | 96% | 1015.9 hPa | 0 mm | - | - | - |
| 1777630365 | 2.78° C | 99% | 1016.2 hPa | 0 mm | - | - | - |
* Rain since midnight (hover to see other rain measurements)
** Current wind speed in m/s (hover to see current wind gust speed)